sensor_id;sensor_type;location;lat;lon;timestamp;pressure;altitude;pressure_sealevel;temperature;humidity
49065;BME280;34877;27.062;-82.386;2022-12-18T00:05:57;101552.80;;;15.86;83.43
49065;BME280;34877;27.062;-82.386;2022-12-18T00:16:02;101582.89;;;15.51;80.90
49065;BME280;34877;27.062;-82.386;2022-12-18T00:26:10;101574.93;;;15.51;81.08
49065;BME280;34877;27.062;-82.386;2022-12-18T00:36:16;101593.98;;;15.89;81.15
49065;BME280;34877;27.062;-82.386;2022-12-18T00:46:22;101613.73;;;15.45;78.82
49065;BME280;34877;27.062;-82.386;2022-12-18T00:56:27;101627.67;;;15.55;79.13
49065;BME280;34877;27.062;-82.386;2022-12-18T01:06:31;101616.91;;;15.46;79.18
49065;BME280;34877;27.062;-82.386;2022-12-18T01:16:37;101637.11;;;15.40;77.45
49065;BME280;34877;27.062;-82.386;2022-12-18T01:26:47;101647.74;;;15.40;79.76
49065;BME280;34877;27.062;-82.386;2022-12-18T01:36:58;101623.11;;;15.33;79.92
49065;BME280;34877;27.062;-82.386;2022-12-18T01:47:02;101683.13;;;15.81;78.66
49065;BME280;34877;27.062;-82.386;2022-12-18T01:57:08;101690.57;;;15.75;79.19
49065;BME280;34877;27.062;-82.386;2022-12-18T02:07:24;101666.06;;;15.61;79.04
49065;BME280;34877;27.062;-82.386;2022-12-18T02:17:38;101579.68;;;15.31;77.98
49065;BME280;34877;27.062;-82.386;2022-12-18T02:27:51;101634.59;;;15.41;77.80
49065;BME280;34877;27.062;-82.386;2022-12-18T02:37:57;101643.68;;;15.23;78.03
49065;BME280;34877;27.062;-82.386;2022-12-18T02:48:04;101691.81;;;15.75;78.43
49065;BME280;34877;27.062;-82.386;2022-12-18T02:58:26;101710.44;;;15.15;79.05
49065;BME280;34877;27.062;-82.386;2022-12-18T03:08:36;101702.43;;;15.77;80.11
49065;BME280;34877;27.062;-82.386;2022-12-18T03:18:47;101692.17;;;15.73;81.35
49065;BME280;34877;27.062;-82.386;2022-12-18T03:28:55;101617.68;;;15.54;82.45
49065;BME280;34877;27.062;-82.386;2022-12-18T03:39:03;101633.61;;;15.71;83.21
49065;BME280;34877;27.062;-82.386;2022-12-18T03:49:16;101642.12;;;15.26;84.54
49065;BME280;34877;27.062;-82.386;2022-12-18T03:59:23;101646.34;;;15.84;86.36
49065;BME280;34877;27.062;-82.386;2022-12-18T04:09:32;101629.52;;;15.23;86.80
49065;BME280;34877;27.062;-82.386;2022-12-18T04:19:37;101650.89;;;15.10;87.84
49065;BME280;34877;27.062;-82.386;2022-12-18T04:29:42;101670.56;;;15.41;88.07
49065;BME280;34877;27.062;-82.386;2022-12-18T04:39:47;101678.83;;;14.79;89.41
49065;BME280;34877;27.062;-82.386;2022-12-18T04:49:52;101674.01;;;15.31;89.78
49065;BME280;34877;27.062;-82.386;2022-12-18T04:59:57;101660.16;;;15.40;90.71
49065;BME280;34877;27.062;-82.386;2022-12-18T05:10:03;101666.90;;;15.24;91.13
49065;BME280;34877;27.062;-82.386;2022-12-18T05:20:07;101659.49;;;14.96;91.68
49065;BME280;34877;27.062;-82.386;2022-12-18T05:30:17;101657.85;;;15.20;92.16
49065;BME280;34877;27.062;-82.386;2022-12-18T05:40:22;101595.37;;;15.30;92.88
49065;BME280;34877;27.062;-82.386;2022-12-18T05:50:26;101584.74;;;15.27;92.54
49065;BME280;34877;27.062;-82.386;2022-12-18T06:00:34;101616.02;;;14.56;93.98
49065;BME280;34877;27.062;-82.386;2022-12-18T06:10:38;101631.59;;;14.85;93.91
49065;BME280;34877;27.062;-82.386;2022-12-18T06:20:42;101638.97;;;15.09;93.61
49065;BME280;34877;27.062;-82.386;2022-12-18T06:30:48;101661.61;;;15.13;93.55
49065;BME280;34877;27.062;-82.386;2022-12-18T06:40:52;101700.01;;;14.86;93.94
49065;BME280;34877;27.062;-82.386;2022-12-18T06:50:57;101702.88;;;14.90;95.24
49065;BME280;34877;27.062;-82.386;2022-12-18T07:01:04;101664.44;;;15.14;94.83
49065;BME280;34877;27.062;-82.386;2022-12-18T07:11:08;101691.63;;;14.45;95.33
49065;BME280;34877;27.062;-82.386;2022-12-18T07:21:14;101706.31;;;14.96;94.71
49065;BME280;34877;27.062;-82.386;2022-12-18T07:31:20;101697.90;;;14.84;95.30
49065;BME280;34877;27.062;-82.386;2022-12-18T07:41:22;101685.65;;;14.70;95.83
49065;BME280;34877;27.062;-82.386;2022-12-18T07:51:28;101684.63;;;14.61;95.14
49065;BME280;34877;27.062;-82.386;2022-12-18T08:01:31;101685.76;;;14.58;95.19
49065;BME280;34877;27.062;-82.386;2022-12-18T08:11:37;101680.46;;;15.02;96.13
49065;BME280;34877;27.062;-82.386;2022-12-18T08:21:42;101686.31;;;14.67;95.90
49065;BME280;34877;27.062;-82.386;2022-12-18T08:31:48;101682.01;;;14.35;96.56
49065;BME280;34877;27.062;-82.386;2022-12-18T08:41:56;101675.60;;;14.35;95.82
49065;BME280;34877;27.062;-82.386;2022-12-18T08:52:07;101679.32;;;14.64;95.70
49065;BME280;34877;27.062;-82.386;2022-12-18T09:02:17;101656.21;;;14.40;95.51
49065;BME280;34877;27.062;-82.386;2022-12-18T09:12:22;101652.53;;;14.25;94.99
49065;BME280;34877;27.062;-82.386;2022-12-18T09:22:28;101650.62;;;14.52;95.78
49065;BME280;34877;27.062;-82.386;2022-12-18T09:32:32;101609.73;;;14.83;95.12
49065;BME280;34877;27.062;-82.386;2022-12-18T09:42:37;101596.90;;;14.42;95.98
49065;BME280;34877;27.062;-82.386;2022-12-18T09:52:45;101606.79;;;14.35;95.89
49065;BME280;34877;27.062;-82.386;2022-12-18T10:02:55;101617.20;;;14.62;95.45
49065;BME280;34877;27.062;-82.386;2022-12-18T10:13:24;101616.33;;;14.48;95.86
49065;BME280;34877;27.062;-82.386;2022-12-18T10:23:37;101634.65;;;14.18;96.19
49065;BME280;34877;27.062;-82.386;2022-12-18T10:33:42;101641.74;;;14.23;95.68
49065;BME280;34877;27.062;-82.386;2022-12-18T10:43:47;101650.07;;;14.20;95.59
49065;BME280;34877;27.062;-82.386;2022-12-18T10:53:55;101653.76;;;14.20;95.25
49065;BME280;34877;27.062;-82.386;2022-12-18T11:04:16;101675.79;;;14.22;95.82
49065;BME280;34877;27.062;-82.386;2022-12-18T11:14:25;101692.44;;;14.28;95.52
49065;BME280;34877;27.062;-82.386;2022-12-18T11:24:35;101703.51;;;13.98;95.77
49065;BME280;34877;27.062;-82.386;2022-12-18T11:34:38;101712.56;;;14.21;95.73
49065;BME280;34877;27.062;-82.386;2022-12-18T11:44:48;101729.25;;;14.15;98.05
49065;BME280;34877;27.062;-82.386;2022-12-18T11:54:53;101742.03;;;14.16;97.44
49065;BME280;34877;27.062;-82.386;2022-12-18T12:05:12;101752.57;;;14.38;97.65
49065;BME280;34877;27.062;-82.386;2022-12-18T12:15:29;101752.61;;;13.79;97.85
49065;BME280;34877;27.062;-82.386;2022-12-18T12:25:40;101771.95;;;13.50;98.44
49065;BME280;34877;27.062;-82.386;2022-12-18T12:35:52;101783.51;;;13.92;98.48
49065;BME280;34877;27.062;-82.386;2022-12-18T12:46:03;101798.85;;;14.17;98.68
49065;BME280;34877;27.062;-82.386;2022-12-18T12:56:09;101809.33;;;13.98;98.64
49065;BME280;34877;27.062;-82.386;2022-12-18T13:06:25;101838.64;;;13.59;100.00
49065;BME280;34877;27.062;-82.386;2022-12-18T13:16:33;101858.75;;;13.72;100.00
49065;BME280;34877;27.062;-82.386;2022-12-18T13:26:37;101893.37;;;13.96;100.00
49065;BME280;34877;27.062;-82.386;2022-12-18T13:36:42;101915.58;;;14.52;100.00
49065;BME280;34877;27.062;-82.386;2022-12-18T13:46:50;101938.40;;;14.10;99.50
49065;BME280;34877;27.062;-82.386;2022-12-18T13:56:58;101950.30;;;14.11;98.14
49065;BME280;34877;27.062;-82.386;2022-12-18T14:07:05;101965.29;;;14.69;97.69
49065;BME280;34877;27.062;-82.386;2022-12-18T14:17:12;101984.76;;;13.97;94.09
49065;BME280;34877;27.062;-82.386;2022-12-18T14:27:24;102001.13;;;14.02;89.19
49065;BME280;34877;27.062;-82.386;2022-12-18T14:37:27;102011.57;;;13.93;85.67
49065;BME280;34877;27.062;-82.386;2022-12-18T14:47:32;102007.85;;;14.12;77.94
49065;BME280;34877;27.062;-82.386;2022-12-18T14:57:37;102011.46;;;14.06;77.44
49065;BME280;34877;27.062;-82.386;2022-12-18T15:07:46;102015.72;;;14.24;77.83
49065;BME280;34877;27.062;-82.386;2022-12-18T15:18:03;102036.64;;;14.03;78.41
49065;BME280;34877;27.062;-82.386;2022-12-18T15:28:19;102036.93;;;14.24;79.26
49065;BME280;34877;27.062;-82.386;2022-12-18T15:38:27;102038.16;;;14.06;80.17
49065;BME280;34877;27.062;-82.386;2022-12-18T15:48:34;102009.44;;;13.95;81.77
49065;BME280;34877;27.062;-82.386;2022-12-18T15:58:37;101998.69;;;14.35;82.11
49065;BME280;34877;27.062;-82.386;2022-12-18T16:08:42;101998.70;;;13.85;82.61
49065;BME280;34877;27.062;-82.386;2022-12-18T16:18:47;101987.97;;;13.74;82.56
49065;BME280;34877;27.062;-82.386;2022-12-18T16:28:52;101976.53;;;14.50;81.84
49065;BME280;34877;27.062;-82.386;2022-12-18T16:38:57;101957.02;;;14.17;82.18
49065;BME280;34877;27.062;-82.386;2022-12-18T16:49:02;101972.58;;;14.10;81.89
49065;BME280;34877;27.062;-82.386;2022-12-18T16:59:09;101956.61;;;14.23;81.06
49065;BME280;34877;27.062;-82.386;2022-12-18T17:09:13;101931.79;;;14.35;81.21
49065;BME280;34877;27.062;-82.386;2022-12-18T17:19:23;101903.17;;;14.42;79.80
49065;BME280;34877;27.062;-82.386;2022-12-18T17:29:27;101873.62;;;14.51;79.01
49065;BME280;34877;27.062;-82.386;2022-12-18T17:39:32;101866.96;;;14.84;76.89
49065;BME280;34877;27.062;-82.386;2022-12-18T17:49:37;101843.37;;;14.62;69.19
49065;BME280;34877;27.062;-82.386;2022-12-18T17:59:42;101824.36;;;14.58;69.84
49065;BME280;34877;27.062;-82.386;2022-12-18T18:09:47;101807.64;;;14.86;70.52
49065;BME280;34877;27.062;-82.386;2022-12-18T18:19:52;101817.43;;;14.96;69.78
49065;BME280;34877;27.062;-82.386;2022-12-18T18:29:57;101809.23;;;14.66;71.35
49065;BME280;34877;27.062;-82.386;2022-12-18T18:40:08;101810.02;;;14.42;72.41
49065;BME280;34877;27.062;-82.386;2022-12-18T18:50:12;101793.02;;;15.13;70.69
49065;BME280;34877;27.062;-82.386;2022-12-18T19:00:17;101775.83;;;14.97;64.51
49065;BME280;34877;27.062;-82.386;2022-12-18T19:10:22;101790.55;;;15.04;63.97
49065;BME280;34877;27.062;-82.386;2022-12-18T19:20:27;101800.73;;;15.06;63.03
49065;BME280;34877;27.062;-82.386;2022-12-18T19:30:35;101788.15;;;15.16;64.65
49065;BME280;34877;27.062;-82.386;2022-12-18T19:40:43;101817.33;;;15.36;66.13
49065;BME280;34877;27.062;-82.386;2022-12-18T19:50:47;101810.56;;;14.58;65.56
49065;BME280;34877;27.062;-82.386;2022-12-18T20:00:52;101834.56;;;14.82;62.46
49065;BME280;34877;27.062;-82.386;2022-12-18T20:10:56;101830.63;;;14.96;60.53
49065;BME280;34877;27.062;-82.386;2022-12-18T20:21:02;101838.20;;;15.27;59.33
49065;BME280;34877;27.062;-82.386;2022-12-18T20:31:08;101831.25;;;15.63;61.07
49065;BME280;34877;27.062;-82.386;2022-12-18T20:41:15;101843.29;;;15.17;59.28
49065;BME280;34877;27.062;-82.386;2022-12-18T20:51:21;101855.84;;;15.25;59.24
49065;BME280;34877;27.062;-82.386;2022-12-18T21:01:28;101863.52;;;15.17;57.86
49065;BME280;34877;27.062;-82.386;2022-12-18T21:11:32;101869.56;;;15.22;55.26
49065;BME280;34877;27.062;-82.386;2022-12-18T21:21:36;101878.18;;;15.66;54.45
49065;BME280;34877;27.062;-82.386;2022-12-18T21:31:42;101890.24;;;15.33;52.23
49065;BME280;34877;27.062;-82.386;2022-12-18T21:41:47;101898.79;;;15.35;53.92
49065;BME280;34877;27.062;-82.386;2022-12-18T21:51:54;101907.44;;;15.49;52.36
